Nilos — 9HA3981 — position and weather

sailwx.info

Track history (hours):
 
Tides and Currents Weather Stations Pressure Air Temp Water Temp Dewpoint Dewpoint Depression Visibility Wind Speed Wind Dir Waves Ship Positions

Nilos

Last reported at 2017-Oct-08 06:47 UTC. Time now 2017-Oct-17 01:21 UTC.
Position N 46°18' W 125°40'.
Warning: this ship's position is 8 days out of date.

Length 225 m; draft 13.1 m.

Type: Cargo ship. MMSI: 256683000.

Date/timePositionNaut miles runAvg speedWind from/ knotsBaromVisibWave heightAir tempDewpointWater temp
2017-Oct-08 06:47N 46°18' W 125°40'3 9.6
2017-Oct-08 06:30N 46°18' W 125°36'5 9.1
2017-Oct-08 06:00N 46°17' W 125°29'5 9.7
2017-Oct-08 05:30N 46°17' W 125°22'510.2
2017-Oct-08 05:00N 46°16' W 125°15'510.3
2017-Oct-08 04:30N 46°15' W 125°08'510.4
2017-Oct-08 04:00N 46°15' W 125°00'710.5
2017-Oct-08 03:19N 46°14' W 124°50'310.8
2017-Oct-08 03:00N 46°13' W 124°45'510.7
2017-Oct-08 02:30N 46°13' W 124°37'611.2
2017-Oct-08 02:00N 46°12' W 124°29'611.5
2017-Oct-08 01:30N 46°12' W 124°21'611.6
2017-Oct-08 00:58N 46°12' W 124°12'511.8
2017-Oct-08 00:30N 46°15' W 124°06'611.3
2017-Oct-08 00:00N 46°13' W 123°58'510.1
2017-Oct-07 23:31N 46°12' W 123°51'5 9.4
2017-Oct-07 23:00N 46°13' W 123°45'510.3
2017-Oct-07 22:31N 46°16' W 123°38'5 9.8
2017-Oct-07 22:00N 46°16' W 123°31'4 8.3
2017-Oct-07 21:31N 46°14' W 123°26'5 9.1
2017-Oct-07 21:00N 46°09' W 123°24'5 9.5
2017-Oct-07 20:30N 46°09' W 123°17'611.3
2017-Oct-07 20:00N 46°11' W 123°10'611.0
2017-Oct-07 19:30N 46°09' W 123°03'510.2
2017-Oct-07 19:00N 46°06' W 122°57'5 9.9
2017-Oct-07 18:30N 46°02' W 122°53'5 9.9
2017-Oct-07 18:00N 45°58' W 122°49'611.8
2017-Oct-07 17:30N 45°52' W 122°47'611.3
2017-Oct-07 17:00N 45°46' W 122°46'611.1
2017-Oct-07 16:30N 45°41' W 122°47'2 3.7
2017-Oct-07 16:00N 45°39' W 122°46'0 0.2
2017-Oct-07 15:30N 45°39' W 122°46'0 0.0
2017-Oct-07 14:57N 45°39' W 122°46'0 0.0
2017-Oct-07 14:30N 45°39' W 122°46'0 0.0
2017-Oct-07 13:57N 45°39' W 122°46'0 0.0
2017-Oct-07 13:30N 45°39' W 122°46'0 0.0
2017-Oct-07 13:00N 45°39' W 122°46'0 0.0
2017-Oct-07 12:30N 45°39' W 122°46'0 0.0
2017-Oct-07 11:54N 45°39' W 122°46'0 0.0
2017-Oct-07 11:30N 45°39' W 122°46'0 0.1
2017-Oct-07 11:00N 45°39' W 122°46'0 1.0
2017-Oct-07 10:30N 45°39' W 122°45'2 4.7
2017-Oct-07 10:00N 45°38' W 122°42'0 0.3
2017-Oct-07 09:27N 45°38' W 122°42'0 0.0
2017-Oct-07 08:57N 45°38' W 122°42'0 0.0
2017-Oct-07 08:06N 45°38' W 122°42'0 0.0
2017-Oct-07 07:58N 45°38' W 122°42'0 0.0
2017-Oct-07 07:27N 45°38' W 122°42'0 0.0
2017-Oct-07 06:54N 45°38' W 122°42'0 0.0
2017-Oct-07 06:28N 45°38' W 122°42'0 0.0
2017-Oct-07 06:00N 45°38' W 122°42'0 0.0
2017-Oct-07 05:30N 45°38' W 122°42'0 0.0
2017-Oct-07 05:00N 45°38' W 122°42'0 0.0
2017-Oct-07 04:30N 45°38' W 122°42'0 0.0
2017-Oct-07 04:00N 45°38' W 122°42'0 0.0
2017-Oct-07 03:30N 45°38' W 122°42'0 0.0
2017-Oct-07 02:58N 45°38' W 122°42'0 0.0
2017-Oct-07 02:30N 45°38' W 122°42'0 0.0
2017-Oct-07 02:00N 45°38' W 122°42'0 0.0
2017-Oct-07 01:30N 45°38' W 122°42'0 0.0
2017-Oct-07 01:00N 45°38' W 122°42'0 0.0
2017-Oct-07 00:30N 45°38' W 122°42'0 0.0
2017-Oct-07 00:01N 45°38' W 122°42'0 0.0
2017-Oct-06 23:30N 45°38' W 122°42'0 0.0
2017-Oct-06 23:00N 45°38' W 122°42'0 0.0
2017-Oct-06 22:30N 45°38' W 122°42'0 0.0
2017-Oct-06 22:00N 45°38' W 122°42'0 0.0
2017-Oct-06 21:28N 45°38' W 122°42'0 0.0
2017-Oct-06 21:01N 45°38' W 122°42'0 0.0
2017-Oct-06 20:30N 45°38' W 122°42'0 0.0
2017-Oct-06 20:00N 45°38' W 122°42'0 0.0
2017-Oct-06 19:30N 45°38' W 122°42'0 0.0
2017-Oct-06 19:00N 45°38' W 122°42'0 0.0
2017-Oct-06 18:30N 45°38' W 122°42'0 0.0
2017-Oct-06 18:00N 45°38' W 122°42'0 0.0
2017-Oct-06 17:30N 45°38' W 122°42'0 0.1
2017-Oct-06 17:00N 45°38' W 122°42'0 0.0
2017-Oct-06 16:30N 45°38' W 122°42'0 0.0
2017-Oct-06 16:00N 45°38' W 122°42'0 0.1
2017-Oct-06 15:30N 45°38' W 122°42'0 0.1
2017-Oct-06 15:00N 45°38' W 122°42'0 0.0
2017-Oct-06 14:24N 45°38' W 122°42'0 0.0
2017-Oct-06 13:54N 45°38' W 122°42'0 0.1
2017-Oct-06 13:30N 45°38' W 122°42'0 0.1
2017-Oct-06 12:57N 45°38' W 122°42'0 0.1
2017-Oct-06 12:30N 45°38' W 122°42'0 0.1
2017-Oct-06 11:48N 45°38' W 122°42'0 0.1
2017-Oct-06 11:30N 45°38' W 122°42'0 0.0
2017-Oct-06 11:00N 45°38' W 122°42'0 0.0
2017-Oct-06 10:30N 45°38' W 122°42'0 0.1
2017-Oct-06 10:00N 45°38' W 122°42'0 0.0
2017-Oct-06 09:30N 45°38' W 122°42'0 0.0
2017-Oct-06 09:00N 45°38' W 122°42'0 0.0
2017-Oct-06 08:30N 45°38' W 122°42'0 0.0
2017-Oct-06 08:00N 45°38' W 122°42'0 0.1
2017-Oct-06 07:30N 45°38' W 122°42'0 0.1
2017-Oct-06 07:00N 45°38' W 122°42'0 0.1
2017-Oct-06 06:30N 45°38' W 122°42'0 0.0
2017-Oct-06 06:00N 45°38' W 122°42'0 0.1
2017-Oct-06 05:30N 45°38' W 122°42'0 0.0
2017-Oct-06 05:00N 45°38' W 122°42'0 0.0
2017-Oct-06 04:30N 45°38' W 122°42'0 0.1
2017-Oct-06 04:00N 45°38' W 122°42'0 0.1
2017-Oct-06 03:30N 45°38' W 122°42'0 0.1
2017-Oct-06 03:00N 45°38' W 122°42'0 0.0
2017-Oct-06 02:30N 45°38' W 122°42'0 0.0
2017-Oct-06 02:00N 45°38' W 122°42'0 0.0
2017-Oct-06 01:30N 45°38' W 122°42'0 0.1
2017-Oct-06 01:00N 45°38' W 122°42'0 0.0
2017-Oct-06 00:30N 45°38' W 122°42'0 0.1
2017-Oct-05 23:54N 45°38' W 122°42'0 0.0
2017-Oct-05 23:30N 45°38' W 122°42'0 0.0
2017-Oct-05 23:00N 45°38' W 122°42'0 0.0
2017-Oct-05 22:30N 45°38' W 122°42'0 0.0
2017-Oct-05 22:00N 45°38' W 122°42'0 0.0
2017-Oct-05 21:30N 45°38' W 122°42'0 0.1
2017-Oct-05 21:00N 45°38' W 122°42'0 0.1
2017-Oct-05 20:30N 45°38' W 122°42'0 0.1
2017-Oct-05 20:00N 45°38' W 122°42'0 0.0
2017-Oct-05 19:30N 45°38' W 122°42'0 0.0
2017-Oct-05 19:00N 45°38' W 122°42'0 0.1
2017-Oct-05 18:30N 45°38' W 122°42'0 0.0
2017-Oct-05 17:57N 45°38' W 122°42'0 0.1
2017-Oct-05 17:30N 45°38' W 122°42'0 0.0
2017-Oct-05 17:00N 45°38' W 122°42'0 0.0
2017-Oct-05 15:30N 45°38' W 122°42'0 0.1
2017-Oct-05 15:00N 45°38' W 122°42'0 0.0
2017-Oct-05 14:30N 45°38' W 122°42'0 0.1
2017-Oct-05 14:00N 45°38' W 122°42'0 0.1
2017-Oct-05 13:27N 45°38' W 122°42'0 0.0
2017-Oct-05 13:00N 45°38' W 122°42'0 0.0
2017-Oct-05 12:30N 45°38' W 122°42'0 0.0
2017-Oct-05 11:57N 45°38' W 122°42'0 0.1
2017-Oct-05 11:30N 45°38' W 122°42'0 0.1
2017-Oct-05 10:45N 45°38' W 122°42'0 0.0
2017-Oct-05 10:30N 45°38' W 122°42'0 0.0
2017-Oct-05 09:51N 45°38' W 122°42'0 0.0
2017-Oct-05 09:30N 45°38' W 122°42'0 0.0
2017-Oct-05 08:57N 45°38' W 122°42'0 0.0
2017-Oct-05 08:30N 45°38' W 122°42'0 0.1
2017-Oct-05 08:00N 45°38' W 122°42'0 0.1
2017-Oct-05 07:30N 45°38' W 122°42'0 0.0
2017-Oct-05 07:00N 45°38' W 122°42'0 0.0
2017-Oct-05 06:24N 45°38' W 122°42'0 0.0
2017-Oct-05 06:00N 45°38' W 122°42'0 0.0
2017-Oct-05 05:30N 45°38' W 122°42'0 0.0
2017-Oct-05 05:00N 45°38' W 122°42'0 0.0
2017-Oct-05 04:30N 45°38' W 122°42'0 0.0
2017-Oct-05 04:00N 45°38' W 122°42'0 0.0
2017-Oct-05 03:27N 45°38' W 122°42'0 0.1
2017-Oct-05 02:54N 45°38' W 122°42'1 1.3
2017-Oct-05 02:23N 45°38' W 122°43'0 0.1
2017-Oct-05 01:59N 45°38' W 122°43'0 0.0
2017-Oct-05 01:29N 45°38' W 122°43'0 0.1
2017-Oct-05 00:59N 45°38' W 122°43'0 0.1
2017-Oct-05 00:29N 45°38' W 122°43'0 0.0
2017-Oct-04 23:56N 45°38' W 122°43'0 0.1
2017-Oct-04 23:29N 45°38' W 122°43'0 0.1
2017-Oct-04 22:56N 45°38' W 122°43'0 0.2
2017-Oct-04 22:30N 45°38' W 122°43'3 5.3
2017-Oct-04 22:01N 45°40' W 122°46'611.4
2017-Oct-04 21:31N 45°45' W 122°46'612.2
2017-Oct-04 21:01N 45°51' W 122°47'612.9
2017-Oct-04 20:31N 45°58' W 122°49'612.8
2017-Oct-04 20:01N 46°03' W 122°53'612.1
2017-Oct-04 19:31N 46°07' W 122°59'612.7
2017-Oct-04 19:00N 46°11' W 123°07'612.6
2017-Oct-04 18:30N 46°09' W 123°16'611.8
2017-Oct-04 18:01N 46°10' W 123°24'510.6
2017-Oct-04 17:30N 46°15' W 123°26'510.1
2017-Oct-04 17:00N 46°15' W 123°33'613.0
2017-Oct-04 16:31N 46°14' W 123°43'5 9.6
2017-Oct-04 15:59N 46°12' W 123°49'0 0.2
2017-Oct-04 15:29N 46°12' W 123°49'0 0.0
2017-Oct-04 14:59N 46°12' W 123°49'0 0.0
2017-Oct-04 14:29N 46°12' W 123°49'0 0.1
2017-Oct-04 13:59N 46°12' W 123°49'0 0.0
2017-Oct-04 13:29N 46°12' W 123°49'0 0.0
2017-Oct-04 12:59N 46°12' W 123°49'0 0.0
2017-Oct-04 12:29N 46°12' W 123°49'0 0.0
2017-Oct-04 11:56N 46°12' W 123°49'0 0.0
2017-Oct-04 11:29N 46°12' W 123°49'0 0.0
2017-Oct-04 10:59N 46°12' W 123°49'0 0.0
2017-Oct-04 10:29N 46°12' W 123°49'0 0.0
2017-Oct-04 09:59N 46°12' W 123°49'0 0.0
2017-Oct-04 09:29N 46°12' W 123°49'0 0.1
2017-Oct-04 08:56N 46°12' W 123°49'0 0.1
2017-Oct-04 08:29N 46°12' W 123°49'0 0.4
2017-Oct-04 07:59N 46°12' W 123°49'0 0.0
2017-Oct-04 07:14N 46°12' W 123°49'0 0.1
2017-Oct-04 06:59N 46°12' W 123°49'0 0.0
2017-Oct-04 06:26N 46°12' W 123°49'0 0.1
2017-Oct-04 05:59N 46°12' W 123°49'0 0.0
2017-Oct-04 05:29N 46°12' W 123°49'0 0.1
2017-Oct-04 04:59N 46°12' W 123°49'0 0.4
2017-Oct-04 04:26N 46°12' W 123°49'0 0.0
2017-Oct-04 03:26N 46°12' W 123°49'0 0.0
2017-Oct-04 02:59N 46°12' W 123°49'0 0.0
2017-Oct-04 02:29N 46°12' W 123°49'0 0.0
2017-Oct-04 01:59N 46°12' W 123°49'0 0.0
2017-Oct-04 01:29N 46°12' W 123°49'0 0.0
2017-Oct-04 00:59N 46°12' W 123°49'0 0.0
2017-Oct-04 00:29N 46°12' W 123°49'0 0.0
2017-Oct-03 23:59N 46°12' W 123°49'0 0.0
2017-Oct-03 23:29N 46°12' W 123°49'0 0.0
2017-Oct-03 22:59N 46°12' W 123°49'0 0.0
2017-Oct-03 22:17N 46°12' W 123°49'0 0.0
2017-Oct-03 21:59N 46°12' W 123°49'0 0.1
2017-Oct-03 21:26N 46°12' W 123°49'0 0.1
2017-Oct-03 20:59N 46°12' W 123°49'0 0.3
2017-Oct-03 20:29N 46°12' W 123°49'0 0.2
2017-Oct-03 19:59N 46°12' W 123°49'0 0.1
2017-Oct-03 19:29N 46°12' W 123°49'0 0.0
2017-Oct-03 18:59N 46°12' W 123°49'0 0.0
2017-Oct-03 18:29N 46°12' W 123°49'0 0.1
2017-Oct-03 17:53N 46°12' W 123°49'0 0.1
2017-Oct-03 17:29N 46°12' W 123°49'0 0.1
2017-Oct-03 16:59N 46°12' W 123°49'0 0.5
2017-Oct-03 16:29N 46°12' W 123°49'0 0.1
2017-Oct-03 15:56N 46°12' W 123°49'0 0.1
2017-Oct-03 15:20N 46°12' W 123°49'0 0.0
2017-Oct-03 14:56N 46°12' W 123°49'0 0.0
2017-Oct-03 13:59N 46°12' W 123°49'0 0.0
2017-Oct-03 13:26N 46°12' W 123°49'0 0.0
2017-Oct-03 12:59N 46°12' W 123°49'0 0.0
2017-Oct-03 12:29N 46°12' W 123°49'0 0.0
2017-Oct-03 11:59N 46°12' W 123°49'0 0.0
2017-Oct-03 11:29N 46°12' W 123°49'0 0.0
2017-Oct-03 10:59N 46°12' W 123°49'0 0.0
2017-Oct-03 10:29N 46°12' W 123°49'0 0.0
2017-Oct-03 09:59N 46°12' W 123°49'0 0.0
2017-Oct-03 09:26N 46°12' W 123°49'0 0.1
2017-Oct-03 08:59N 46°12' W 123°49'0 0.1
2017-Oct-03 08:29N 46°12' W 123°49'0 0.3
2017-Oct-03 08:00N 46°12' W 123°49'0 0.3
2017-Oct-03 07:29N 46°12' W 123°49'0 0.0
2017-Oct-03 06:59N 46°12' W 123°49'0 0.1
2017-Oct-03 06:29N 46°12' W 123°49'0 0.2
2017-Oct-03 05:59N 46°12' W 123°49'0 0.0
2017-Oct-03 05:29N 46°12' W 123°49'0 0.0
2017-Oct-03 04:59N 46°12' W 123°49'0 0.1
2017-Oct-03 04:29N 46°12' W 123°49'0 0.2
2017-Oct-03 03:59N 46°12' W 123°49'0 0.3
2017-Oct-03 03:29N 46°12' W 123°49'0 0.1
2017-Oct-03 02:56N 46°12' W 123°49'0 0.0
2017-Oct-03 02:26N 46°12' W 123°49'0 0.0
2017-Oct-03 01:53N 46°12' W 123°49'0 0.0
2017-Oct-03 01:11N 46°12' W 123°49'0 0.0
2017-Oct-03 00:45N 46°12' W 123°49'0 0.0
2017-Oct-03 00:29N 46°12' W 123°49'0 0.0
2017-Oct-02 23:59N 46°12' W 123°49'0 0.0
2017-Oct-02 23:29N 46°12' W 123°49'0 0.0
2017-Oct-02 22:59N 46°12' W 123°49'0 0.0
2017-Oct-02 22:29N 46°12' W 123°49'0 0.0
2017-Oct-02 21:59N 46°12' W 123°49'0 0.1
2017-Oct-02 21:23N 46°12' W 123°49'0 0.0
2017-Oct-02 20:59N 46°12' W 123°49'0 0.1
2017-Oct-02 20:26N 46°12' W 123°49'0 0.2
2017-Oct-02 19:59N 46°12' W 123°49'0 0.3
2017-Oct-02 19:26N 46°12' W 123°49'0 0.1
2017-Oct-02 18:59N 46°12' W 123°49'0 0.0
2017-Oct-02 18:26N 46°12' W 123°49'0 0.0
2017-Oct-02 17:56N 46°12' W 123°49'0 0.1
2017-Oct-02 17:29N 46°12' W 123°49'0 0.1
2017-Oct-02 16:59N 46°12' W 123°49'0 0.0
2017-Oct-02 16:29N 46°12' W 123°49'0 0.2
2017-Oct-02 15:59N 46°12' W 123°49'0 0.4
2017-Oct-02 15:29N 46°12' W 123°49'0 0.1
2017-Oct-02 14:59N 46°12' W 123°49'0 0.0
2017-Oct-02 14:29N 46°12' W 123°49'0 0.0
2017-Oct-02 13:38N 46°12' W 123°49'0 0.0
2017-Oct-02 13:29N 46°12' W 123°49'0 0.0
2017-Oct-02 12:59N 46°12' W 123°49'0 0.0
2017-Oct-02 12:26N 46°12' W 123°49'0 0.0
2017-Oct-02 11:59N 46°12' W 123°49'0 0.0
2017-Oct-02 11:26N 46°12' W 123°49'0 0.0
2017-Oct-02 10:59N 46°12' W 123°49'0 0.0
2017-Oct-02 10:29N 46°12' W 123°49'0 0.0
2017-Oct-02 09:59N 46°12' W 123°49'0 0.0
2017-Oct-02 09:29N 46°12' W 123°49'0 0.0
2017-Oct-02 08:59N 46°12' W 123°49'0 0.0
2017-Oct-02 08:29N 46°12' W 123°49'0 0.2
2017-Oct-02 07:59N 46°12' W 123°49'0 0.5
2017-Oct-02 07:29N 46°12' W 123°49'0 0.0
2017-Oct-02 06:53N 46°12' W 123°49'0 0.0
2017-Oct-02 06:29N 46°12' W 123°49'0 0.0
2017-Oct-02 05:59N 46°12' W 123°49'0 0.0
2017-Oct-02 04:56N 46°12' W 123°49'0 0.0
2017-Oct-02 04:27N 46°12' W 123°49'0 0.0
2017-Oct-02 04:00N 46°12' W 123°49'0 0.1
2017-Oct-02 03:30N 46°12' W 123°49'0 0.0
2017-Oct-02 02:59N 46°12' W 123°49'0 0.3
2017-Oct-02 02:26N 46°12' W 123°49'0 0.2
2017-Oct-02 01:54N 46°12' W 123°49'0 0.1
2017-Oct-02 01:30N 46°12' W 123°49'0 0.1
2017-Oct-02 01:00N 46°12' W 123°49'0 0.0
2017-Oct-02 00:30N 46°12' W 123°49'0 0.0
2017-Oct-02 00:00N 46°12' W 123°49'0 0.0
2017-Oct-01 23:30N 46°12' W 123°49'0 0.0
2017-Oct-01 23:00N 46°12' W 123°49'0 0.0
2017-Oct-01 22:29N 46°12' W 123°49'0 0.0
2017-Oct-01 21:26N 46°12' W 123°49'0 0.1
2017-Oct-01 20:59N 46°12' W 123°49'0 0.2
2017-Oct-01 20:29N 46°12' W 123°49'0 0.1
2017-Oct-01 19:59N 46°12' W 123°49'0 0.1
2017-Oct-01 19:29N 46°12' W 123°49'0 0.1
2017-Oct-01 18:59N 46°12' W 123°49'0 0.1
2017-Oct-01 18:29N 46°12' W 123°49'0 0.1
2017-Oct-01 17:56N 46°12' W 123°49'0 0.1
2017-Oct-01 17:29N 46°12' W 123°49'0 0.0
2017-Oct-01 16:59N 46°12' W 123°49'0 0.1
2017-Oct-01 16:26N 46°12' W 123°49'0 0.0
2017-Oct-01 15:59N 46°12' W 123°49'0 0.0
2017-Oct-01 15:29N 46°12' W 123°49'0 0.3
2017-Oct-01 14:59N 46°12' W 123°49'0 0.3
2017-Oct-01 14:29N 46°12' W 123°49'0 0.1
2017-Oct-01 13:59N 46°12' W 123°49'0 0.0
2017-Oct-01 13:26N 46°12' W 123°49'0 0.1
2017-Oct-01 12:59N 46°12' W 123°49'0 0.0
2017-Oct-01 12:26N 46°12' W 123°49'0 0.0
2017-Oct-01 11:59N 46°12' W 123°49'0 0.0
2017-Oct-01 11:29N 46°12' W 123°49'0 0.0
2017-Oct-01 10:56N 46°12' W 123°49'0 0.0
2017-Oct-01 10:26N 46°12' W 123°49'0 0.0
2017-Oct-01 09:59N 46°12' W 123°49'0 0.0
2017-Oct-01 09:29N 46°12' W 123°49'0 0.1
2017-Oct-01 08:56N 46°12' W 123°49'0 0.0
2017-Oct-01 08:29N 46°12' W 123°49'0 0.0
2017-Oct-01 07:57N 46°12' W 123°49'0 0.1
2017-Oct-01 07:29N 46°12' W 123°49'0 0.1
2017-Oct-01 06:59N 46°12' W 123°49'0 0.4
2017-Oct-01 06:26N 46°12' W 123°49'0 0.1
2017-Oct-01 06:00N 46°12' W 123°49'0 0.0
2017-Oct-01 05:30N 46°12' W 123°49'0 0.1
2017-Oct-01 04:57N 46°12' W 123°49'0 0.0
2017-Oct-01 04:27N 46°12' W 123°49'0 0.0
2017-Oct-01 03:57N 46°12' W 123°49'0 0.0
2017-Oct-01 03:06N 46°12' W 123°49'0 0.1
2017-Oct-01 03:00N 46°12' W 123°49'0 0.0
2017-Sep-30 01:59N 46°12' W 123°49'0 0.0
2017-Sep-30 01:29N 46°12' W 123°49'0 0.1
2017-Sep-30 00:59N 46°12' W 123°49'0 0.1
2017-Sep-30 00:29N 46°12' W 123°49'0 0.2
2017-Sep-29 23:56N 46°12' W 123°49'0 0.0
2017-Sep-29 23:29N 46°12' W 123°49'0 0.0
2017-Sep-29 22:56N 46°12' W 123°49'0 0.1
2017-Sep-29 22:26N 46°12' W 123°49'0 0.1
2017-Sep-29 21:59N 46°12' W 123°49'0 0.1
2017-Sep-29 21:20N 46°12' W 123°49'0 0.0
2017-Sep-29 20:59N 46°12' W 123°49'0 0.0
2017-Sep-29 20:26N 46°12' W 123°49'0 0.2
2017-Sep-29 19:59N 46°12' W 123°49'0 0.0
2017-Sep-29 19:29N 46°12' W 123°49'0 0.1
2017-Sep-29 18:56N 46°12' W 123°49'0 0.1
2017-Sep-29 18:29N 46°12' W 123°49'0 0.2
2017-Sep-29 17:59N 46°12' W 123°49'0 0.2
2017-Sep-29 17:29N 46°12' W 123°49'0 0.1
2017-Sep-29 16:59N 46°12' W 123°49'0 0.0
2017-Sep-29 15:41N 46°12' W 123°49'0 0.0
2017-Sep-29 15:29N 46°12' W 123°49'0 0.0
2017-Sep-29 14:56N 46°12' W 123°49'0 0.1
2017-Sep-29 14:29N 46°12' W 123°49'0 0.1
2017-Sep-29 13:59N 46°12' W 123°49'0 0.0
2017-Sep-29 13:29N 46°12' W 123°49'0 0.2
2017-Sep-29 12:59N 46°12' W 123°49'0 0.2
2017-Sep-29 12:23N 46°12' W 123°49'0 0.1
2017-Sep-29 11:59N 46°12' W 123°49'0 0.0
2017-Sep-29 11:29N 46°12' W 123°49'0 0.1
2017-Sep-29 10:59N 46°12' W 123°49'0 0.0
2017-Sep-29 10:29N 46°12' W 123°49'0 0.0
2017-Sep-29 09:59N 46°12' W 123°49'0 0.0
2017-Sep-29 09:29N 46°12' W 123°49'0 0.0
2017-Sep-29 08:59N 46°12' W 123°49'0 0.0
2017-Sep-29 08:29N 46°12' W 123°49'0 0.0
2017-Sep-29 07:59N 46°12' W 123°49'0 0.0
2017-Sep-29 07:29N 46°12' W 123°49'0 0.0
2017-Sep-29 06:59N 46°12' W 123°49'0 0.0
2017-Sep-29 06:23N 46°12' W 123°49'0 0.0
2017-Sep-29 05:59N 46°12' W 123°49'0 0.1
2017-Sep-29 05:29N 46°12' W 123°49'0 0.1
2017-Sep-29 04:56N 46°12' W 123°49'0 0.1
2017-Sep-29 04:29N 46°12' W 123°49'0 0.1
2017-Sep-29 03:59N 46°12' W 123°49'0 0.2
2017-Sep-29 03:29N 46°12' W 123°49'0 0.2
2017-Sep-29 02:59N 46°12' W 123°49'0 0.1
2017-Sep-29 02:29N 46°12' W 123°49'0 0.0
2017-Sep-29 01:56N 46°12' W 123°49'0 0.0
2017-Sep-29 01:20N 46°12' W 123°49'0 0.1
2017-Sep-29 00:56N 46°12' W 123°49'0 0.0
2017-Sep-29 00:26N 46°12' W 123°49'0 0.0
2017-Sep-28 23:59N 46°12' W 123°49'0 0.0
2017-Sep-28 23:29N 46°12' W 123°49'0 0.1
2017-Sep-28 22:59N 46°12' W 123°49'0 0.2
2017-Sep-28 22:14N 46°12' W 123°49'0 0.2
2017-Sep-28 21:56N 46°12' W 123°49'0 0.2
2017-Sep-28 21:29N 46°12' W 123°49'0 0.1
2017-Sep-28 20:59N 46°12' W 123°49'0 0.1
2017-Sep-28 20:29N 46°12' W 123°49'0 0.1
2017-Sep-28 19:59N 46°12' W 123°49'0 0.0
2017-Sep-28 19:20N 46°12' W 123°49'0 0.0
2017-Sep-28 18:56N 46°12' W 123°49'0 0.0
2017-Sep-28 18:29N 46°12' W 123°49'0 0.0
2017-Sep-28 17:59N 46°12' W 123°49'0 0.0
2017-Sep-28 17:29N 46°12' W 123°49'0 0.0
2017-Sep-28 16:59N 46°12' W 123°49'0 0.0
2017-Sep-28 16:26N 46°12' W 123°49'0 0.2
2017-Sep-28 15:59N 46°12' W 123°49'0 0.3
2017-Sep-28 15:29N 46°12' W 123°49'0 0.0
2017-Sep-28 14:59N 46°12' W 123°49'0 0.0
2017-Sep-28 14:29N 46°12' W 123°49'0 0.2
2017-Sep-28 13:59N 46°12' W 123°49'0 0.1
2017-Sep-28 13:26N 46°12' W 123°49'0 0.1
2017-Sep-28 12:59N 46°12' W 123°49'0 0.1
2017-Sep-28 12:29N 46°12' W 123°49'0 0.0
2017-Sep-28 11:59N 46°12' W 123°49'0 0.0
2017-Sep-28 11:29N 46°12' W 123°49'0 0.0
2017-Sep-28 10:59N 46°12' W 123°49'0 0.0
2017-Sep-28 10:29N 46°12' W 123°49'0 0.0
2017-Sep-28 09:59N 46°12' W 123°49'0 0.0
2017-Sep-28 09:29N 46°12' W 123°49'0 0.0
2017-Sep-28 08:59N 46°12' W 123°49'0 0.0
2017-Sep-28 08:26N 46°12' W 123°49'0 0.0
2017-Sep-28 07:59N 46°12' W 123°49'0 0.0
2017-Sep-28 07:29N 46°12' W 123°49'0 0.0
2017-Sep-28 06:59N 46°12' W 123°49'  
Track history (hours):
 
Tides and Currents Weather Stations Pressure Air Temp Water Temp Dewpoint Dewpoint Depression Visibility Wind Speed Wind Dir Waves Ship Positions

Nilos

Last reported at 2017-Oct-08 06:47 UTC. Time now 2017-Oct-17 01:21 UTC.
Position N 46°18' W 125°40'.
Warning: this ship's position is 8 days out of date.

Length 225 m; draft 13.1 m.

Type: Cargo ship. MMSI: 256683000.

Date/timePositionNaut miles runAvg speedWind from/ knotsBaromVisibWave heightAir tempDewpointWater temp
2017-Oct-08 06:47N 46°18' W 125°40'3 9.6
2017-Oct-08 06:30N 46°18' W 125°36'5 9.1
2017-Oct-08 06:00N 46°17' W 125°29'5 9.7
2017-Oct-08 05:30N 46°17' W 125°22'510.2
2017-Oct-08 05:00N 46°16' W 125°15'510.3
2017-Oct-08 04:30N 46°15' W 125°08'510.4
2017-Oct-08 04:00N 46°15' W 125°00'710.5
2017-Oct-08 03:19N 46°14' W 124°50'310.8
2017-Oct-08 03:00N 46°13' W 124°45'510.7
2017-Oct-08 02:30N 46°13' W 124°37'611.2
2017-Oct-08 02:00N 46°12' W 124°29'611.5
2017-Oct-08 01:30N 46°12' W 124°21'611.6
2017-Oct-08 00:58N 46°12' W 124°12'511.8
2017-Oct-08 00:30N 46°15' W 124°06'611.3
2017-Oct-08 00:00N 46°13' W 123°58'510.1
2017-Oct-07 23:31N 46°12' W 123°51'5 9.4
2017-Oct-07 23:00N 46°13' W 123°45'510.3
2017-Oct-07 22:31N 46°16' W 123°38'5 9.8
2017-Oct-07 22:00N 46°16' W 123°31'4 8.3
2017-Oct-07 21:31N 46°14' W 123°26'5 9.1
2017-Oct-07 21:00N 46°09' W 123°24'5 9.5
2017-Oct-07 20:30N 46°09' W 123°17'611.3
2017-Oct-07 20:00N 46°11' W 123°10'611.0
2017-Oct-07 19:30N 46°09' W 123°03'510.2
2017-Oct-07 19:00N 46°06' W 122°57'5 9.9
2017-Oct-07 18:30N 46°02' W 122°53'5 9.9
2017-Oct-07 18:00N 45°58' W 122°49'611.8
2017-Oct-07 17:30N 45°52' W 122°47'611.3
2017-Oct-07 17:00N 45°46' W 122°46'611.1
2017-Oct-07 16:30N 45°41' W 122°47'2 3.7
2017-Oct-07 16:00N 45°39' W 122°46'0 0.2
2017-Oct-07 15:30N 45°39' W 122°46'0 0.0
2017-Oct-07 14:57N 45°39' W 122°46'0 0.0
2017-Oct-07 14:30N 45°39' W 122°46'0 0.0
2017-Oct-07 13:57N 45°39' W 122°46'0 0.0
2017-Oct-07 13:30N 45°39' W 122°46'0 0.0
2017-Oct-07 13:00N 45°39' W 122°46'0 0.0
2017-Oct-07 12:30N 45°39' W 122°46'0 0.0
2017-Oct-07 11:54N 45°39' W 122°46'0 0.0
2017-Oct-07 11:30N 45°39' W 122°46'0 0.1
2017-Oct-07 11:00N 45°39' W 122°46'0 1.0
2017-Oct-07 10:30N 45°39' W 122°45'2 4.7
2017-Oct-07 10:00N 45°38' W 122°42'0 0.3
2017-Oct-07 09:27N 45°38' W 122°42'0 0.0
2017-Oct-07 08:57N 45°38' W 122°42'0 0.0
2017-Oct-07 08:06N 45°38' W 122°42'0 0.0
2017-Oct-07 07:58N 45°38' W 122°42'0 0.0
2017-Oct-07 07:27N 45°38' W 122°42'0 0.0
2017-Oct-07 06:54N 45°38' W 122°42'0 0.0
2017-Oct-07 06:28N 45°38' W 122°42'0 0.0
2017-Oct-07 06:00N 45°38' W 122°42'0 0.0
2017-Oct-07 05:30N 45°38' W 122°42'0 0.0
2017-Oct-07 05:00N 45°38' W 122°42'0 0.0
2017-Oct-07 04:30N 45°38' W 122°42'0 0.0
2017-Oct-07 04:00N 45°38' W 122°42'0 0.0
2017-Oct-07 03:30N 45°38' W 122°42'0 0.0
2017-Oct-07 02:58N 45°38' W 122°42'0 0.0
2017-Oct-07 02:30N 45°38' W 122°42'0 0.0
2017-Oct-07 02:00N 45°38' W 122°42'0 0.0
2017-Oct-07 01:30N 45°38' W 122°42'0 0.0
2017-Oct-07 01:00N 45°38' W 122°42'0 0.0
2017-Oct-07 00:30N 45°38' W 122°42'0 0.0
2017-Oct-07 00:01N 45°38' W 122°42'0 0.0
2017-Oct-06 23:30N 45°38' W 122°42'0 0.0
2017-Oct-06 23:00N 45°38' W 122°42'0 0.0
2017-Oct-06 22:30N 45°38' W 122°42'0 0.0
2017-Oct-06 22:00N 45°38' W 122°42'0 0.0
2017-Oct-06 21:28N 45°38' W 122°42'0 0.0
2017-Oct-06 21:01N 45°38' W 122°42'0 0.0
2017-Oct-06 20:30N 45°38' W 122°42'0 0.0
2017-Oct-06 20:00N 45°38' W 122°42'0 0.0
2017-Oct-06 19:30N 45°38' W 122°42'0 0.0
2017-Oct-06 19:00N 45°38' W 122°42'0 0.0
2017-Oct-06 18:30N 45°38' W 122°42'0 0.0
2017-Oct-06 18:00N 45°38' W 122°42'0 0.0
2017-Oct-06 17:30N 45°38' W 122°42'0 0.1
2017-Oct-06 17:00N 45°38' W 122°42'0 0.0
2017-Oct-06 16:30N 45°38' W 122°42'0 0.0
2017-Oct-06 16:00N 45°38' W 122°42'0 0.1
2017-Oct-06 15:30N 45°38' W 122°42'0 0.1
2017-Oct-06 15:00N 45°38' W 122°42'0 0.0
2017-Oct-06 14:24N 45°38' W 122°42'0 0.0
2017-Oct-06 13:54N 45°38' W 122°42'0 0.1
2017-Oct-06 13:30N 45°38' W 122°42'0 0.1
2017-Oct-06 12:57N 45°38' W 122°42'0 0.1
2017-Oct-06 12:30N 45°38' W 122°42'0 0.1
2017-Oct-06 11:48N 45°38' W 122°42'0 0.1
2017-Oct-06 11:30N 45°38' W 122°42'0 0.0
2017-Oct-06 11:00N 45°38' W 122°42'0 0.0
2017-Oct-06 10:30N 45°38' W 122°42'0 0.1
2017-Oct-06 10:00N 45°38' W 122°42'0 0.0
2017-Oct-06 09:30N 45°38' W 122°42'0 0.0
2017-Oct-06 09:00N 45°38' W 122°42'0 0.0
2017-Oct-06 08:30N 45°38' W 122°42'0 0.0
2017-Oct-06 08:00N 45°38' W 122°42'0 0.1
2017-Oct-06 07:30N 45°38' W 122°42'0 0.1
2017-Oct-06 07:00N 45°38' W 122°42'0 0.1
2017-Oct-06 06:30N 45°38' W 122°42'0 0.0
2017-Oct-06 06:00N 45°38' W 122°42'0 0.1
2017-Oct-06 05:30N 45°38' W 122°42'0 0.0
2017-Oct-06 05:00N 45°38' W 122°42'0 0.0
2017-Oct-06 04:30N 45°38' W 122°42'0 0.1
2017-Oct-06 04:00N 45°38' W 122°42'0 0.1
2017-Oct-06 03:30N 45°38' W 122°42'0 0.1
2017-Oct-06 03:00N 45°38' W 122°42'0 0.0
2017-Oct-06 02:30N 45°38' W 122°42'0 0.0
2017-Oct-06 02:00N 45°38' W 122°42'0 0.0
2017-Oct-06 01:30N 45°38' W 122°42'0 0.1
2017-Oct-06 01:00N 45°38' W 122°42'0 0.0
2017-Oct-06 00:30N 45°38' W 122°42'0 0.1
2017-Oct-05 23:54N 45°38' W 122°42'0 0.0
2017-Oct-05 23:30N 45°38' W 122°42'0 0.0
2017-Oct-05 23:00N 45°38' W 122°42'0 0.0
2017-Oct-05 22:30N 45°38' W 122°42'0 0.0
2017-Oct-05 22:00N 45°38' W 122°42'0 0.0
2017-Oct-05 21:30N 45°38' W 122°42'0 0.1
2017-Oct-05 21:00N 45°38' W 122°42'0 0.1
2017-Oct-05 20:30N 45°38' W 122°42'0 0.1
2017-Oct-05 20:00N 45°38' W 122°42'0 0.0
2017-Oct-05 19:30N 45°38' W 122°42'0 0.0
2017-Oct-05 19:00N 45°38' W 122°42'0 0.1
2017-Oct-05 18:30N 45°38' W 122°42'0 0.0
2017-Oct-05 17:57N 45°38' W 122°42'0 0.1
2017-Oct-05 17:30N 45°38' W 122°42'0 0.0
2017-Oct-05 17:00N 45°38' W 122°42'0 0.0
2017-Oct-05 15:30N 45°38' W 122°42'0 0.1
2017-Oct-05 15:00N 45°38' W 122°42'0 0.0
2017-Oct-05 14:30N 45°38' W 122°42'0 0.1
2017-Oct-05 14:00N 45°38' W 122°42'0 0.1
2017-Oct-05 13:27N 45°38' W 122°42'0 0.0
2017-Oct-05 13:00N 45°38' W 122°42'0 0.0
2017-Oct-05 12:30N 45°38' W 122°42'0 0.0
2017-Oct-05 11:57N 45°38' W 122°42'0 0.1
2017-Oct-05 11:30N 45°38' W 122°42'0 0.1
2017-Oct-05 10:45N 45°38' W 122°42'0 0.0
2017-Oct-05 10:30N 45°38' W 122°42'0 0.0
2017-Oct-05 09:51N 45°38' W 122°42'0 0.0
2017-Oct-05 09:30N 45°38' W 122°42'0 0.0
2017-Oct-05 08:57N 45°38' W 122°42'0 0.0
2017-Oct-05 08:30N 45°38' W 122°42'0 0.1
2017-Oct-05 08:00N 45°38' W 122°42'0 0.1
2017-Oct-05 07:30N 45°38' W 122°42'0 0.0
2017-Oct-05 07:00N 45°38' W 122°42'0 0.0
2017-Oct-05 06:24N 45°38' W 122°42'0 0.0
2017-Oct-05 06:00N 45°38' W 122°42'0 0.0
2017-Oct-05 05:30N 45°38' W 122°42'0 0.0
2017-Oct-05 05:00N 45°38' W 122°42'0 0.0
2017-Oct-05 04:30N 45°38' W 122°42'0 0.0
2017-Oct-05 04:00N 45°38' W 122°42'0 0.0
2017-Oct-05 03:27N 45°38' W 122°42'0 0.1
2017-Oct-05 02:54N 45°38' W 122°42'1 1.3
2017-Oct-05 02:23N 45°38' W 122°43'0 0.1
2017-Oct-05 01:59N 45°38' W 122°43'0 0.0
2017-Oct-05 01:29N 45°38' W 122°43'0 0.1
2017-Oct-05 00:59N 45°38' W 122°43'0 0.1
2017-Oct-05 00:29N 45°38' W 122°43'0 0.0
2017-Oct-04 23:56N 45°38' W 122°43'0 0.1
2017-Oct-04 23:29N 45°38' W 122°43'0 0.1
2017-Oct-04 22:56N 45°38' W 122°43'0 0.2
2017-Oct-04 22:30N 45°38' W 122°43'3 5.3
2017-Oct-04 22:01N 45°40' W 122°46'611.4
2017-Oct-04 21:31N 45°45' W 122°46'612.2
2017-Oct-04 21:01N 45°51' W 122°47'612.9
2017-Oct-04 20:31N 45°58' W 122°49'612.8
2017-Oct-04 20:01N 46°03' W 122°53'612.1
2017-Oct-04 19:31N 46°07' W 122°59'612.7
2017-Oct-04 19:00N 46°11' W 123°07'612.6
2017-Oct-04 18:30N 46°09' W 123°16'611.8
2017-Oct-04 18:01N 46°10' W 123°24'510.6
2017-Oct-04 17:30N 46°15' W 123°26'510.1
2017-Oct-04 17:00N 46°15' W 123°33'613.0
2017-Oct-04 16:31N 46°14' W 123°43'5 9.6
2017-Oct-04 15:59N 46°12' W 123°49'0 0.2
2017-Oct-04 15:29N 46°12' W 123°49'0 0.0
2017-Oct-04 14:59N 46°12' W 123°49'0 0.0
2017-Oct-04 14:29N 46°12' W 123°49'0 0.1
2017-Oct-04 13:59N 46°12' W 123°49'0 0.0
2017-Oct-04 13:29N 46°12' W 123°49'0 0.0
2017-Oct-04 12:59N 46°12' W 123°49'0 0.0
2017-Oct-04 12:29N 46°12' W 123°49'0 0.0
2017-Oct-04 11:56N 46°12' W 123°49'0 0.0
2017-Oct-04 11:29N 46°12' W 123°49'0 0.0
2017-Oct-04 10:59N 46°12' W 123°49'0 0.0
2017-Oct-04 10:29N 46°12' W 123°49'0 0.0
2017-Oct-04 09:59N 46°12' W 123°49'0 0.0
2017-Oct-04 09:29N 46°12' W 123°49'0 0.1
2017-Oct-04 08:56N 46°12' W 123°49'0 0.1
2017-Oct-04 08:29N 46°12' W 123°49'0 0.4
2017-Oct-04 07:59N 46°12' W 123°49'0 0.0
2017-Oct-04 07:14N 46°12' W 123°49'0 0.1
2017-Oct-04 06:59N 46°12' W 123°49'0 0.0
2017-Oct-04 06:26N 46°12' W 123°49'0 0.1
2017-Oct-04 05:59N 46°12' W 123°49'0 0.0
2017-Oct-04 05:29N 46°12' W 123°49'0 0.1
2017-Oct-04 04:59N 46°12' W 123°49'0 0.4
2017-Oct-04 04:26N 46°12' W 123°49'0 0.0
2017-Oct-04 03:26N 46°12' W 123°49'0 0.0
2017-Oct-04 02:59N 46°12' W 123°49'0 0.0
2017-Oct-04 02:29N 46°12' W 123°49'0 0.0
2017-Oct-04 01:59N 46°12' W 123°49'0 0.0
2017-Oct-04 01:29N 46°12' W 123°49'0 0.0
2017-Oct-04 00:59N 46°12' W 123°49'0 0.0
2017-Oct-04 00:29N 46°12' W 123°49'0 0.0
2017-Oct-03 23:59N 46°12' W 123°49'0 0.0
2017-Oct-03 23:29N 46°12' W 123°49'0 0.0
2017-Oct-03 22:59N 46°12' W 123°49'0 0.0
2017-Oct-03 22:17N 46°12' W 123°49'0 0.0
2017-Oct-03 21:59N 46°12' W 123°49'0 0.1
2017-Oct-03 21:26N 46°12' W 123°49'0 0.1
2017-Oct-03 20:59N 46°12' W 123°49'0 0.3
2017-Oct-03 20:29N 46°12' W 123°49'0 0.2
2017-Oct-03 19:59N 46°12' W 123°49'0 0.1
2017-Oct-03 19:29N 46°12' W 123°49'0 0.0
2017-Oct-03 18:59N 46°12' W 123°49'0 0.0
2017-Oct-03 18:29N 46°12' W 123°49'0 0.1
2017-Oct-03 17:53N 46°12' W 123°49'0 0.1
2017-Oct-03 17:29N 46°12' W 123°49'0 0.1
2017-Oct-03 16:59N 46°12' W 123°49'0 0.5
2017-Oct-03 16:29N 46°12' W 123°49'0 0.1
2017-Oct-03 15:56N 46°12' W 123°49'0 0.1
2017-Oct-03 15:20N 46°12' W 123°49'0 0.0
2017-Oct-03 14:56N 46°12' W 123°49'0 0.0
2017-Oct-03 13:59N 46°12' W 123°49'0 0.0
2017-Oct-03 13:26N 46°12' W 123°49'0 0.0
2017-Oct-03 12:59N 46°12' W 123°49'0 0.0
2017-Oct-03 12:29N 46°12' W 123°49'0 0.0
2017-Oct-03 11:59N 46°12' W 123°49'0 0.0
2017-Oct-03 11:29N 46°12' W 123°49'0 0.0
2017-Oct-03 10:59N 46°12' W 123°49'0 0.0
2017-Oct-03 10:29N 46°12' W 123°49'0 0.0
2017-Oct-03 09:59N 46°12' W 123°49'0 0.0
2017-Oct-03 09:26N 46°12' W 123°49'0 0.1
2017-Oct-03 08:59N 46°12' W 123°49'0 0.1
2017-Oct-03 08:29N 46°12' W 123°49'0 0.3
2017-Oct-03 08:00N 46°12' W 123°49'0 0.3
2017-Oct-03 07:29N 46°12' W 123°49'0 0.0
2017-Oct-03 06:59N 46°12' W 123°49'0 0.1
2017-Oct-03 06:29N 46°12' W 123°49'0 0.2
2017-Oct-03 05:59N 46°12' W 123°49'0 0.0
2017-Oct-03 05:29N 46°12' W 123°49'0 0.0
2017-Oct-03 04:59N 46°12' W 123°49'0 0.1
2017-Oct-03 04:29N 46°12' W 123°49'0 0.2
2017-Oct-03 03:59N 46°12' W 123°49'0 0.3
2017-Oct-03 03:29N 46°12' W 123°49'0 0.1
2017-Oct-03 02:56N 46°12' W 123°49'0 0.0
2017-Oct-03 02:26N 46°12' W 123°49'0 0.0
2017-Oct-03 01:53N 46°12' W 123°49'0 0.0
2017-Oct-03 01:11N 46°12' W 123°49'0 0.0
2017-Oct-03 00:45N 46°12' W 123°49'0 0.0
2017-Oct-03 00:29N 46°12' W 123°49'0 0.0
2017-Oct-02 23:59N 46°12' W 123°49'0 0.0
2017-Oct-02 23:29N 46°12' W 123°49'0 0.0
2017-Oct-02 22:59N 46°12' W 123°49'0 0.0
2017-Oct-02 22:29N 46°12' W 123°49'0 0.0
2017-Oct-02 21:59N 46°12' W 123°49'0 0.1
2017-Oct-02 21:23N 46°12' W 123°49'0 0.0
2017-Oct-02 20:59N 46°12' W 123°49'0 0.1
2017-Oct-02 20:26N 46°12' W 123°49'0 0.2
2017-Oct-02 19:59N 46°12' W 123°49'0 0.3
2017-Oct-02 19:26N 46°12' W 123°49'0 0.1
2017-Oct-02 18:59N 46°12' W 123°49'0 0.0
2017-Oct-02 18:26N 46°12' W 123°49'0 0.0
2017-Oct-02 17:56N 46°12' W 123°49'0 0.1
2017-Oct-02 17:29N 46°12' W 123°49'0 0.1
2017-Oct-02 16:59N 46°12' W 123°49'0 0.0
2017-Oct-02 16:29N 46°12' W 123°49'0 0.2
2017-Oct-02 15:59N 46°12' W 123°49'0 0.4
2017-Oct-02 15:29N 46°12' W 123°49'0 0.1
2017-Oct-02 14:59N 46°12' W 123°49'0 0.0
2017-Oct-02 14:29N 46°12' W 123°49'0 0.0
2017-Oct-02 13:38N 46°12' W 123°49'0 0.0
2017-Oct-02 13:29N 46°12' W 123°49'0 0.0
2017-Oct-02 12:59N 46°12' W 123°49'0 0.0
2017-Oct-02 12:26N 46°12' W 123°49'0 0.0
2017-Oct-02 11:59N 46°12' W 123°49'0 0.0
2017-Oct-02 11:26N 46°12' W 123°49'0 0.0
2017-Oct-02 10:59N 46°12' W 123°49'0 0.0
2017-Oct-02 10:29N 46°12' W 123°49'0 0.0
2017-Oct-02 09:59N 46°12' W 123°49'0 0.0
2017-Oct-02 09:29N 46°12' W 123°49'0 0.0
2017-Oct-02 08:59N 46°12' W 123°49'0 0.0
2017-Oct-02 08:29N 46°12' W 123°49'0 0.2
2017-Oct-02 07:59N 46°12' W 123°49'0 0.5
2017-Oct-02 07:29N 46°12' W 123°49'0 0.0
2017-Oct-02 06:53N 46°12' W 123°49'0 0.0
2017-Oct-02 06:29N 46°12' W 123°49'0 0.0
2017-Oct-02 05:59N 46°12' W 123°49'0 0.0
2017-Oct-02 04:56N 46°12' W 123°49'0 0.0
2017-Oct-02 04:27N 46°12' W 123°49'0 0.0
2017-Oct-02 04:00N 46°12' W 123°49'0 0.1
2017-Oct-02 03:30N 46°12' W 123°49'0 0.0
2017-Oct-02 02:59N 46°12' W 123°49'0 0.3
2017-Oct-02 02:26N 46°12' W 123°49'0 0.2
2017-Oct-02 01:54N 46°12' W 123°49'0 0.1
2017-Oct-02 01:30N 46°12' W 123°49'0 0.1
2017-Oct-02 01:00N 46°12' W 123°49'0 0.0
2017-Oct-02 00:30N 46°12' W 123°49'0 0.0
2017-Oct-02 00:00N 46°12' W 123°49'0 0.0
2017-Oct-01 23:30N 46°12' W 123°49'0 0.0
2017-Oct-01 23:00N 46°12' W 123°49'0 0.0
2017-Oct-01 22:29N 46°12' W 123°49'0 0.0
2017-Oct-01 21:26N 46°12' W 123°49'0 0.1
2017-Oct-01 20:59N 46°12' W 123°49'0 0.2
2017-Oct-01 20:29N 46°12' W 123°49'0 0.1
2017-Oct-01 19:59N 46°12' W 123°49'0 0.1
2017-Oct-01 19:29N 46°12' W 123°49'0 0.1
2017-Oct-01 18:59N 46°12' W 123°49'0 0.1
2017-Oct-01 18:29N 46°12' W 123°49'0 0.1
2017-Oct-01 17:56N 46°12' W 123°49'0 0.1
2017-Oct-01 17:29N 46°12' W 123°49'0 0.0
2017-Oct-01 16:59N 46°12' W 123°49'0 0.1
2017-Oct-01 16:26N 46°12' W 123°49'0 0.0
2017-Oct-01 15:59N 46°12' W 123°49'0 0.0
2017-Oct-01 15:29N 46°12' W 123°49'0 0.3
2017-Oct-01 14:59N 46°12' W 123°49'0 0.3
2017-Oct-01 14:29N 46°12' W 123°49'0 0.1
2017-Oct-01 13:59N 46°12' W 123°49'0 0.0
2017-Oct-01 13:26N 46°12' W 123°49'0 0.1
2017-Oct-01 12:59N 46°12' W 123°49'0 0.0
2017-Oct-01 12:26N 46°12' W 123°49'0 0.0
2017-Oct-01 11:59N 46°12' W 123°49'0 0.0
2017-Oct-01 11:29N 46°12' W 123°49'0 0.0
2017-Oct-01 10:56N 46°12' W 123°49'0 0.0
2017-Oct-01 10:26N 46°12' W 123°49'0 0.0
2017-Oct-01 09:59N 46°12' W 123°49'0 0.0
2017-Oct-01 09:29N 46°12' W 123°49'0 0.1
2017-Oct-01 08:56N 46°12' W 123°49'0 0.0
2017-Oct-01 08:29N 46°12' W 123°49'0 0.0
2017-Oct-01 07:57N 46°12' W 123°49'0 0.1
2017-Oct-01 07:29N 46°12' W 123°49'0 0.1
2017-Oct-01 06:59N 46°12' W 123°49'0 0.4
2017-Oct-01 06:26N 46°12' W 123°49'0 0.1
2017-Oct-01 06:00N 46°12' W 123°49'0 0.0
2017-Oct-01 05:30N 46°12' W 123°49'0 0.1
2017-Oct-01 04:57N 46°12' W 123°49'0 0.0
2017-Oct-01 04:27N 46°12' W 123°49'0 0.0
2017-Oct-01 03:57N 46°12' W 123°49'0 0.0
2017-Oct-01 03:06N 46°12' W 123°49'0 0.1
2017-Oct-01 03:00N 46°12' W 123°49'0 0.0
2017-Sep-30 01:59N 46°12' W 123°49'0 0.0
2017-Sep-30 01:29N 46°12' W 123°49'0 0.1
2017-Sep-30 00:59N 46°12' W 123°49'0 0.1
2017-Sep-30 00:29N 46°12' W 123°49'0 0.2
2017-Sep-29 23:56N 46°12' W 123°49'0 0.0
2017-Sep-29 23:29N 46°12' W 123°49'0 0.0
2017-Sep-29 22:56N 46°12' W 123°49'0 0.1
2017-Sep-29 22:26N 46°12' W 123°49'0 0.1
2017-Sep-29 21:59N 46°12' W 123°49'0 0.1
2017-Sep-29 21:20N 46°12' W 123°49'0 0.0
2017-Sep-29 20:59N 46°12' W 123°49'0 0.0
2017-Sep-29 20:26N 46°12' W 123°49'0 0.2
2017-Sep-29 19:59N 46°12' W 123°49'0 0.0
2017-Sep-29 19:29N 46°12' W 123°49'0 0.1
2017-Sep-29 18:56N 46°12' W 123°49'0 0.1
2017-Sep-29 18:29N 46°12' W 123°49'0 0.2
2017-Sep-29 17:59N 46°12' W 123°49'0 0.2
2017-Sep-29 17:29N 46°12' W 123°49'0 0.1
2017-Sep-29 16:59N 46°12' W 123°49'0 0.0
2017-Sep-29 15:41N 46°12' W 123°49'0 0.0
2017-Sep-29 15:29N 46°12' W 123°49'0 0.0
2017-Sep-29 14:56N 46°12' W 123°49'0 0.1
2017-Sep-29 14:29N 46°12' W 123°49'0 0.1
2017-Sep-29 13:59N 46°12' W 123°49'0 0.0
2017-Sep-29 13:29N 46°12' W 123°49'0 0.2
2017-Sep-29 12:59N 46°12' W 123°49'0 0.2
2017-Sep-29 12:23N 46°12' W 123°49'0 0.1
2017-Sep-29 11:59N 46°12' W 123°49'0 0.0
2017-Sep-29 11:29N 46°12' W 123°49'0 0.1
2017-Sep-29 10:59N 46°12' W 123°49'0 0.0
2017-Sep-29 10:29N 46°12' W 123°49'0 0.0
2017-Sep-29 09:59N 46°12' W 123°49'0 0.0
2017-Sep-29 09:29N 46°12' W 123°49'0 0.0
2017-Sep-29 08:59N 46°12' W 123°49'0 0.0
2017-Sep-29 08:29N 46°12' W 123°49'0 0.0
2017-Sep-29 07:59N 46°12' W 123°49'0 0.0
2017-Sep-29 07:29N 46°12' W 123°49'0 0.0
2017-Sep-29 06:59N 46°12' W 123°49'0 0.0
2017-Sep-29 06:23N 46°12' W 123°49'0 0.0
2017-Sep-29 05:59N 46°12' W 123°49'0 0.1
2017-Sep-29 05:29N 46°12' W 123°49'0 0.1
2017-Sep-29 04:56N 46°12' W 123°49'0 0.1
2017-Sep-29 04:29N 46°12' W 123°49'0 0.1
2017-Sep-29 03:59N 46°12' W 123°49'0 0.2
2017-Sep-29 03:29N 46°12' W 123°49'0 0.2
2017-Sep-29 02:59N 46°12' W 123°49'0 0.1
2017-Sep-29 02:29N 46°12' W 123°49'0 0.0
2017-Sep-29 01:56N 46°12' W 123°49'0 0.0
2017-Sep-29 01:20N 46°12' W 123°49'0 0.1
2017-Sep-29 00:56N 46°12' W 123°49'0 0.0
2017-Sep-29 00:26N 46°12' W 123°49'0 0.0
2017-Sep-28 23:59N 46°12' W 123°49'0 0.0
2017-Sep-28 23:29N 46°12' W 123°49'0 0.1
2017-Sep-28 22:59N 46°12' W 123°49'0 0.2
2017-Sep-28 22:14N 46°12' W 123°49'0 0.2
2017-Sep-28 21:56N 46°12' W 123°49'0 0.2
2017-Sep-28 21:29N 46°12' W 123°49'0 0.1
2017-Sep-28 20:59N 46°12' W 123°49'0 0.1
2017-Sep-28 20:29N 46°12' W 123°49'0 0.1
2017-Sep-28 19:59N 46°12' W 123°49'0 0.0
2017-Sep-28 19:20N 46°12' W 123°49'0 0.0
2017-Sep-28 18:56N 46°12' W 123°49'0 0.0
2017-Sep-28 18:29N 46°12' W 123°49'0 0.0
2017-Sep-28 17:59N 46°12' W 123°49'0 0.0
2017-Sep-28 17:29N 46°12' W 123°49'0 0.0
2017-Sep-28 16:59N 46°12' W 123°49'0 0.0
2017-Sep-28 16:26N 46°12' W 123°49'0 0.2
2017-Sep-28 15:59N 46°12' W 123°49'0 0.3
2017-Sep-28 15:29N 46°12' W 123°49'0 0.0
2017-Sep-28 14:59N 46°12' W 123°49'0 0.0
2017-Sep-28 14:29N 46°12' W 123°49'0 0.2
2017-Sep-28 13:59N 46°12' W 123°49'0 0.1
2017-Sep-28 13:26N 46°12' W 123°49'0 0.1
2017-Sep-28 12:59N 46°12' W 123°49'0 0.1
2017-Sep-28 12:29N 46°12' W 123°49'0 0.0
2017-Sep-28 11:59N 46°12' W 123°49'0 0.0
2017-Sep-28 11:29N 46°12' W 123°49'0 0.0
2017-Sep-28 10:59N 46°12' W 123°49'0 0.0
2017-Sep-28 10:29N 46°12' W 123°49'0 0.0
2017-Sep-28 09:59N 46°12' W 123°49'0 0.0
2017-Sep-28 09:29N 46°12' W 123°49'0 0.0
2017-Sep-28 08:59N 46°12' W 123°49'0 0.0
2017-Sep-28 08:26N 46°12' W 123°49'0 0.0
2017-Sep-28 07:59N 46°12' W 123°49'0 0.0
2017-Sep-28 07:29N 46°12' W 123°49'0 0.0
2017-Sep-28 06:59N 46°12' W 123°49'  

Dump ship's entire track history